Adel, Georgia
Current Conditions -  °F | °C
As of 12:58 PM on Thursday 23 Oct 2014 (Local Time) from KVAD Reporting Station
Clear Clear  
Wind Chill: 71°   Ceiling: Unl
Heat Index: 71°   Visibility: 10mi
Dew Point: 44°   Wind: 7mph
Humidity: 37%   Direction: 70°ENE
Pressure: 30.08"   Gusts: NA
Location:  31.14°N, 83.42°W
Report Text: KVAD 231658Z AUTO 07006KT 10SM CLR 22/07 A3008 RMK AO2 SLP188 T02190065 $
Loading
Personal Weather Stations






























Interactive Weather Map
Tropical Storm Tracking
New forecast layout! Learn more

10-Day Weather Forecast

Advertisements
Track Severe Weather on mobile